createdAt,value
2022-10-19T00:02:57.681Z,15.91
2022-10-19T00:08:01.662Z,15.90
2022-10-19T00:13:03.593Z,15.84
2022-10-19T00:18:05.287Z,15.96
2022-10-19T00:23:07.359Z,16.07
2022-10-19T00:28:09.402Z,15.98
2022-10-19T00:33:11.036Z,15.96
2022-10-19T00:38:12.723Z,16.01
2022-10-19T00:43:24.388Z,16.08
2022-10-19T00:48:31.265Z,16.04
2022-10-19T00:53:33.329Z,15.98
2022-10-19T00:58:35.514Z,16.05
2022-10-19T01:03:39.106Z,16.16
2022-10-19T01:08:40.939Z,16.12
2022-10-19T01:13:58.986Z,16.11
2022-10-19T01:19:24.857Z,16.19
2022-10-19T01:24:45.472Z,16.23
2022-10-19T01:29:59.239Z,16.24
2022-10-19T01:35:42.448Z,16.28
2022-10-19T01:40:56.077Z,16.14
2022-10-19T01:46:36.171Z,16.14
2022-10-19T01:51:42.926Z,16.16
2022-10-19T01:56:47.815Z,16.13
2022-10-19T02:01:52.534Z,15.98
2022-10-19T02:06:55.421Z,15.88
2022-10-19T02:11:59.745Z,15.83
2022-10-19T02:17:19.218Z,15.67
2022-10-19T02:22:21.947Z,15.65
2022-10-19T02:27:23.771Z,15.66
2022-10-19T02:32:26.749Z,15.52
2022-10-19T02:37:28.691Z,15.44
2022-10-19T02:42:43.953Z,15.54
2022-10-19T02:48:03.613Z,15.44
2022-10-19T02:53:05.304Z,15.41
2022-10-19T02:58:07.088Z,15.47
2022-10-19T03:03:09.672Z,15.51
2022-10-19T03:08:11.440Z,15.49
2022-10-19T03:13:13.161Z,15.30
2022-10-19T03:18:15.034Z,15.31
2022-10-19T03:23:16.910Z,15.38
2022-10-19T03:28:18.602Z,15.42
2022-10-19T03:33:20.525Z,15.49
2022-10-19T03:38:22.206Z,15.45
2022-10-19T03:43:24.003Z,15.41
2022-10-19T03:48:25.931Z,15.40
2022-10-19T03:53:28.014Z,15.44
2022-10-19T03:58:31.333Z,15.47
2022-10-19T04:03:33.026Z,15.43
2022-10-19T04:08:35.177Z,15.52
2022-10-19T04:13:37.230Z,15.53
2022-10-19T04:18:39.015Z,15.48
2022-10-19T04:23:40.776Z,15.43
2022-10-19T04:28:42.542Z,15.50
2022-10-19T04:38:46.522Z,15.46
2022-10-19T04:43:49.101Z,15.42
2022-10-19T04:48:51.772Z,15.41
2022-10-19T04:53:58.604Z,15.40
2022-10-19T04:59:01.634Z,15.30
2022-10-19T05:04:03.518Z,15.23
2022-10-19T05:09:05.265Z,15.07
2022-10-19T05:14:06.997Z,14.94
2022-10-19T05:19:13.076Z,14.76
2022-10-19T05:24:14.762Z,14.64
2022-10-19T05:29:16.424Z,14.60
2022-10-19T05:34:18.162Z,14.64
2022-10-19T05:39:19.822Z,14.54
2022-10-19T05:44:23.249Z,14.55
2022-10-19T05:49:24.914Z,14.51
2022-10-19T05:54:28.454Z,14.63
2022-10-19T05:59:31.014Z,14.70
2022-10-19T06:04:33.704Z,14.60
2022-10-19T06:09:36.512Z,14.62
2022-10-19T06:14:38.109Z,14.50
2022-10-19T06:19:39.863Z,14.42
2022-10-19T06:24:41.547Z,14.45
2022-10-19T06:29:43.200Z,14.50
2022-10-19T06:34:44.986Z,14.48
2022-10-19T06:39:46.756Z,14.63
2022-10-19T06:44:48.431Z,14.71
2022-10-19T06:49:50.129Z,14.62
2022-10-19T06:54:52.151Z,14.77
2022-10-19T06:59:54.108Z,14.82
2022-10-19T07:04:55.807Z,14.86
2022-10-19T07:09:57.572Z,14.70
2022-10-19T07:14:59.241Z,14.64
2022-10-19T07:20:01.302Z,14.67
2022-10-19T07:25:03.360Z,14.72
2022-10-19T07:30:05.936Z,14.69
2022-10-19T07:35:07.834Z,14.60
2022-10-19T07:40:10.130Z,14.59
2022-10-19T07:45:12.113Z,14.55
2022-10-19T07:50:13.881Z,14.60
2022-10-19T07:55:15.711Z,14.68
2022-10-19T08:00:17.634Z,14.62
2022-10-19T08:05:19.341Z,14.48
2022-10-19T08:10:21.069Z,14.37
2022-10-19T08:15:22.806Z,14.54
2022-10-19T08:20:24.782Z,14.69
2022-10-19T08:25:26.721Z,14.91
2022-10-19T08:30:28.393Z,14.96
2022-10-19T08:35:31.170Z,15.04
2022-10-19T08:40:33.022Z,14.92
2022-10-19T08:50:45.315Z,14.96
2022-10-19T08:56:55.582Z,15.22
2022-10-19T09:02:02.683Z,15.26
2022-10-19T09:07:31.034Z,15.16
2022-10-19T09:12:47.541Z,15.12
2022-10-19T09:17:49.298Z,15.23
2022-10-19T09:23:19.969Z,15.34
2022-10-19T09:28:45.285Z,15.52
2022-10-19T09:33:55.497Z,15.70
2022-10-19T09:38:57.146Z,15.88
2022-10-19T09:43:59.827Z,15.94
2022-10-19T09:49:04.135Z,16.08
2022-10-19T09:54:05.853Z,16.11
2022-10-19T09:59:22.066Z,16.27
2022-10-19T10:04:23.765Z,16.39
2022-10-19T10:09:28.529Z,16.57
2022-10-19T10:14:34.914Z,16.71
2022-10-19T10:19:37.291Z,16.81
2022-10-19T10:24:51.956Z,16.97
2022-10-19T10:35:07.791Z,17.16
2022-10-19T10:40:27.887Z,17.13
2022-10-19T10:46:04.020Z,17.30
2022-10-19T10:51:19.403Z,17.46
2022-10-19T10:56:29.562Z,17.59
2022-10-19T11:01:40.054Z,17.69
2022-10-19T11:06:52.647Z,17.75
2022-10-19T11:11:56.310Z,17.80
2022-10-19T11:17:03.828Z,17.75
2022-10-19T11:22:28.322Z,17.85
2022-10-19T11:27:48.964Z,17.85
2022-10-19T11:33:07.743Z,17.80
2022-10-19T11:38:21.382Z,18.09
2022-10-19T11:43:59.729Z,18.18
2022-10-19T11:49:22.480Z,18.34
2022-10-19T11:54:33.299Z,18.47
2022-10-19T12:00:14.788Z,18.66
2022-10-19T12:05:32.265Z,19.00
2022-10-19T12:10:44.076Z,18.89
2022-10-19T12:15:49.705Z,18.84
2022-10-19T12:20:56.199Z,19.10
2022-10-19T12:26:01.638Z,19.01
2022-10-19T12:31:05.543Z,18.93
2022-10-19T12:36:30.294Z,18.81
2022-10-19T12:41:40.998Z,18.77
2022-10-19T12:46:52.501Z,18.53
2022-10-19T12:51:56.216Z,18.50
2022-10-19T12:57:00.401Z,18.70
2022-10-19T13:02:06.361Z,18.79
2022-10-19T13:07:10.492Z,19.06
2022-10-19T13:12:21.544Z,19.22
2022-10-19T13:17:50.938Z,19.48
2022-10-19T13:23:03.405Z,19.30
2022-10-19T13:28:07.890Z,19.10
2022-10-19T13:33:34.931Z,18.79
2022-10-19T13:38:42.597Z,18.88
2022-10-19T13:44:06.621Z,18.94
2022-10-19T13:49:27.898Z,18.99
2022-10-19T13:54:34.708Z,18.76
2022-10-19T14:00:01.531Z,18.53
2022-10-19T14:05:30.373Z,18.53
2022-10-19T14:10:43.469Z,18.45
2022-10-19T14:15:57.534Z,18.52
2022-10-19T14:21:09.721Z,18.52
2022-10-19T14:26:16.590Z,18.55
2022-10-19T14:31:22.688Z,18.53
2022-10-19T14:36:31.322Z,18.59
2022-10-19T14:41:37.212Z,18.48
2022-10-19T14:46:39.152Z,18.31
2022-10-19T14:51:49.780Z,18.12
2022-10-19T14:56:51.656Z,17.98
2022-10-19T15:01:58.053Z,17.90
2022-10-19T15:07:03.429Z,17.78
2022-10-19T15:12:09.263Z,17.67
2022-10-19T15:17:31.559Z,17.56
2022-10-19T15:22:33.545Z,17.48
2022-10-19T15:27:41.899Z,17.40
2022-10-19T15:33:10.717Z,17.32
2022-10-19T15:38:20.000Z,17.22
2022-10-19T15:43:30.929Z,17.07
2022-10-19T15:48:41.802Z,16.95
2022-10-19T15:53:43.466Z,16.78
2022-10-19T15:58:49.365Z,16.63
2022-10-19T16:03:51.052Z,16.49
2022-10-19T16:08:54.080Z,16.31
2022-10-19T16:13:56.139Z,16.26
2022-10-19T16:19:00.708Z,16.14
2022-10-19T16:24:02.943Z,16.02
2022-10-19T16:29:04.738Z,15.77
2022-10-19T16:34:06.468Z,15.69
2022-10-19T16:39:08.467Z,15.61
2022-10-19T16:44:12.628Z,15.50
2022-10-19T16:49:14.388Z,15.43
2022-10-19T16:54:17.518Z,15.43
2022-10-19T16:59:19.361Z,15.31
2022-10-19T17:04:21.146Z,15.00
2022-10-19T17:14:48.722Z,14.63
2022-10-19T17:19:50.545Z,14.57
2022-10-19T17:24:55.474Z,14.47
2022-10-19T17:29:57.180Z,14.40
2022-10-19T17:34:58.862Z,14.37
2022-10-19T17:40:00.558Z,14.19
2022-10-19T17:45:02.369Z,14.07
2022-10-19T17:50:04.389Z,13.98
2022-10-19T17:55:11.998Z,14.00
2022-10-19T18:00:14.697Z,13.99
2022-10-19T18:05:17.283Z,14.07
2022-10-19T18:10:19.473Z,13.89
2022-10-19T18:15:21.266Z,13.87
2022-10-19T18:20:23.077Z,13.86
2022-10-19T18:25:42.293Z,13.81
2022-10-19T18:30:46.724Z,13.83
2022-10-19T18:35:49.663Z,13.80
2022-10-19T18:40:51.271Z,13.41
2022-10-19T18:45:54.313Z,13.18
2022-10-19T18:50:57.257Z,12.98
2022-10-19T18:56:03.271Z,12.75
2022-10-19T19:01:07.839Z,12.79
2022-10-19T19:06:12.746Z,12.89
2022-10-19T19:11:21.814Z,12.98
2022-10-19T19:16:24.296Z,13.03
2022-10-19T19:21:28.874Z,13.02
2022-10-19T19:26:33.072Z,12.78
2022-10-19T19:31:35.256Z,12.62
2022-10-19T19:41:43.651Z,12.60
2022-10-19T19:46:45.685Z,12.62
2022-10-19T19:51:49.119Z,12.40
2022-10-19T19:56:51.997Z,12.29
2022-10-19T20:01:53.635Z,11.90
2022-10-19T20:06:55.417Z,11.79
2022-10-19T20:11:57.209Z,11.88
2022-10-19T20:16:59.108Z,11.86
2022-10-19T20:22:01.541Z,11.78
2022-10-19T20:27:03.560Z,11.81
2022-10-19T20:32:05.294Z,11.85
2022-10-19T20:37:07.185Z,11.65
2022-10-19T20:42:08.960Z,11.38
2022-10-19T20:47:11.496Z,11.32
2022-10-19T20:52:13.171Z,11.35
2022-10-19T20:57:14.943Z,11.27
2022-10-19T21:02:16.629Z,11.32
2022-10-19T21:07:18.416Z,11.39
2022-10-19T21:12:20.209Z,11.30
2022-10-19T21:17:22.044Z,11.02
2022-10-19T21:22:23.743Z,11.01
2022-10-19T21:27:25.761Z,11.01
2022-10-19T21:32:27.509Z,10.96
2022-10-19T21:37:29.422Z,10.94
2022-10-19T21:42:31.224Z,10.85
2022-10-19T21:47:33.325Z,10.82
2022-10-19T21:52:35.416Z,10.75
2022-10-19T21:57:37.672Z,10.82
2022-10-19T22:02:39.588Z,10.88
2022-10-19T22:07:41.450Z,10.61
2022-10-19T22:12:43.186Z,10.60
2022-10-19T22:17:44.913Z,10.77
2022-10-19T22:22:49.169Z,10.80
2022-10-19T22:27:53.168Z,10.75
2022-10-19T22:32:55.760Z,10.73
2022-10-19T22:37:57.881Z,10.48
2022-10-19T22:43:01.462Z,10.28
2022-10-19T22:48:05.708Z,10.28
2022-10-19T22:53:07.605Z,10.34
2022-10-19T22:58:09.535Z,10.33
2022-10-19T23:03:11.454Z,10.42
2022-10-19T23:08:13.339Z,10.42
2022-10-19T23:13:15.519Z,10.27
2022-10-19T23:18:17.931Z,10.21
2022-10-19T23:23:19.724Z,10.17
2022-10-19T23:28:21.433Z,10.16
2022-10-19T23:33:23.750Z,10.18
2022-10-19T23:38:25.440Z,10.13
2022-10-19T23:43:27.428Z,10.03
2022-10-19T23:48:29.122Z,9.95
2022-10-19T23:53:35.689Z,10.00
2022-10-19T23:58:40.481Z,9.98
